sensor_id;sensor_type;location;lat;lon;timestamp;P1;durP1;ratioP1;P2;durP2;ratioP2
70450;SDS011;58869;51.982;4.450;2024-02-26T00:01:41;6.67;;;6.67;;
70450;SDS011;58869;51.982;4.450;2024-02-26T00:04:11;7.05;;;7.05;;
70450;SDS011;58869;51.982;4.450;2024-02-26T00:06:37;6.63;;;6.63;;
70450;SDS011;58869;51.982;4.450;2024-02-26T00:09:06;6.75;;;6.75;;
70450;SDS011;58869;51.982;4.450;2024-02-26T00:11:37;6.93;;;6.93;;
70450;SDS011;58869;51.982;4.450;2024-02-26T00:14:03;6.99;;;6.99;;
70450;SDS011;58869;51.982;4.450;2024-02-26T00:16:29;6.96;;;6.96;;
70450;SDS011;58869;51.982;4.450;2024-02-26T00:18:54;6.84;;;6.84;;
70450;SDS011;58869;51.982;4.450;2024-02-26T00:21:20;6.82;;;6.82;;
70450;SDS011;58869;51.982;4.450;2024-02-26T00:23:45;6.92;;;6.92;;
70450;SDS011;58869;51.982;4.450;2024-02-26T00:26:11;6.95;;;6.95;;
70450;SDS011;58869;51.982;4.450;2024-02-26T00:28:39;7.13;;;7.13;;
70450;SDS011;58869;51.982;4.450;2024-02-26T00:31:05;6.75;;;6.75;;
70450;SDS011;58869;51.982;4.450;2024-02-26T00:33:30;6.97;;;6.97;;
70450;SDS011;58869;51.982;4.450;2024-02-26T00:35:58;6.99;;;6.99;;
70450;SDS011;58869;51.982;4.450;2024-02-26T00:38:24;7.15;;;7.15;;
70450;SDS011;58869;51.982;4.450;2024-02-26T00:40:49;7.10;;;7.10;;
70450;SDS011;58869;51.982;4.450;2024-02-26T00:43:15;6.84;;;6.84;;
70450;SDS011;58869;51.982;4.450;2024-02-26T00:45:40;7.13;;;7.13;;
70450;SDS011;58869;51.982;4.450;2024-02-26T00:48:06;7.00;;;7.00;;
70450;SDS011;58869;51.982;4.450;2024-02-26T00:50:32;7.35;;;7.35;;
70450;SDS011;58869;51.982;4.450;2024-02-26T00:52:58;6.84;;;6.84;;
70450;SDS011;58869;51.982;4.450;2024-02-26T00:55:24;6.55;;;6.55;;
70450;SDS011;58869;51.982;4.450;2024-02-26T00:57:50;7.04;;;7.04;;
70450;SDS011;58869;51.982;4.450;2024-02-26T01:00:15;6.93;;;6.93;;
70450;SDS011;58869;51.982;4.450;2024-02-26T01:02:41;7.10;;;7.10;;
70450;SDS011;58869;51.982;4.450;2024-02-26T01:05:07;6.83;;;6.83;;
70450;SDS011;58869;51.982;4.450;2024-02-26T01:07:34;6.73;;;6.73;;
70450;SDS011;58869;51.982;4.450;2024-02-26T01:10:01;6.52;;;6.52;;
70450;SDS011;58869;51.982;4.450;2024-02-26T01:12:28;6.89;;;6.89;;
70450;SDS011;58869;51.982;4.450;2024-02-26T01:14:55;7.09;;;7.09;;
70450;SDS011;58869;51.982;4.450;2024-02-26T01:17:21;7.18;;;7.18;;
70450;SDS011;58869;51.982;4.450;2024-02-26T01:19:46;7.04;;;7.04;;
70450;SDS011;58869;51.982;4.450;2024-02-26T01:22:11;7.10;;;7.10;;
70450;SDS011;58869;51.982;4.450;2024-02-26T01:24:37;7.12;;;7.12;;
70450;SDS011;58869;51.982;4.450;2024-02-26T01:27:02;7.25;;;7.25;;
70450;SDS011;58869;51.982;4.450;2024-02-26T01:29:28;7.34;;;7.34;;
70450;SDS011;58869;51.982;4.450;2024-02-26T01:31:53;7.47;;;7.47;;
70450;SDS011;58869;51.982;4.450;2024-02-26T01:34:20;7.58;;;7.58;;
70450;SDS011;58869;51.982;4.450;2024-02-26T01:36:45;7.36;;;7.36;;
70450;SDS011;58869;51.982;4.450;2024-02-26T01:39:13;7.20;;;7.20;;
70450;SDS011;58869;51.982;4.450;2024-02-26T01:41:39;7.20;;;7.20;;
70450;SDS011;58869;51.982;4.450;2024-02-26T01:44:06;7.82;;;7.82;;
70450;SDS011;58869;51.982;4.450;2024-02-26T01:46:31;7.72;;;7.72;;
70450;SDS011;58869;51.982;4.450;2024-02-26T01:48:59;7.84;;;7.84;;
70450;SDS011;58869;51.982;4.450;2024-02-26T01:51:27;8.06;;;8.06;;
70450;SDS011;58869;51.982;4.450;2024-02-26T01:53:54;7.53;;;7.53;;
70450;SDS011;58869;51.982;4.450;2024-02-26T01:56:20;7.74;;;7.74;;
70450;SDS011;58869;51.982;4.450;2024-02-26T01:58:46;8.13;;;8.13;;
70450;SDS011;58869;51.982;4.450;2024-02-26T02:01:14;8.24;;;8.24;;
70450;SDS011;58869;51.982;4.450;2024-02-26T02:03:41;8.25;;;8.25;;
70450;SDS011;58869;51.982;4.450;2024-02-26T02:06:07;8.22;;;8.22;;
70450;SDS011;58869;51.982;4.450;2024-02-26T02:08:33;8.48;;;8.48;;
70450;SDS011;58869;51.982;4.450;2024-02-26T02:11:00;8.85;;;8.85;;
70450;SDS011;58869;51.982;4.450;2024-02-26T02:13:25;8.50;;;8.50;;
70450;SDS011;58869;51.982;4.450;2024-02-26T02:15:51;8.61;;;8.61;;
70450;SDS011;58869;51.982;4.450;2024-02-26T02:18:18;8.41;;;8.41;;
70450;SDS011;58869;51.982;4.450;2024-02-26T02:20:44;8.65;;;8.65;;
70450;SDS011;58869;51.982;4.450;2024-02-26T02:23:09;8.81;;;8.81;;
70450;SDS011;58869;51.982;4.450;2024-02-26T02:25:39;8.94;;;8.94;;
70450;SDS011;58869;51.982;4.450;2024-02-26T02:28:05;9.14;;;9.14;;
70450;SDS011;58869;51.982;4.450;2024-02-26T02:30:31;9.30;;;9.30;;
70450;SDS011;58869;51.982;4.450;2024-02-26T02:32:58;9.32;;;9.32;;
70450;SDS011;58869;51.982;4.450;2024-02-26T02:35:24;9.41;;;9.41;;
70450;SDS011;58869;51.982;4.450;2024-02-26T02:37:51;9.66;;;9.66;;
70450;SDS011;58869;51.982;4.450;2024-02-26T02:40:19;10.08;;;10.08;;
70450;SDS011;58869;51.982;4.450;2024-02-26T02:42:44;9.73;;;9.73;;
70450;SDS011;58869;51.982;4.450;2024-02-26T02:45:11;10.30;;;10.30;;
70450;SDS011;58869;51.982;4.450;2024-02-26T02:47:38;10.57;;;10.57;;
70450;SDS011;58869;51.982;4.450;2024-02-26T02:50:03;10.40;;;10.40;;
70450;SDS011;58869;51.982;4.450;2024-02-26T02:52:29;10.46;;;10.46;;
70450;SDS011;58869;51.982;4.450;2024-02-26T02:54:55;10.85;;;10.85;;
70450;SDS011;58869;51.982;4.450;2024-02-26T02:57:20;10.90;;;10.90;;
70450;SDS011;58869;51.982;4.450;2024-02-26T02:59:46;10.59;;;10.59;;
70450;SDS011;58869;51.982;4.450;2024-02-26T03:02:11;11.28;;;11.28;;
70450;SDS011;58869;51.982;4.450;2024-02-26T03:04:37;11.08;;;11.05;;
70450;SDS011;58869;51.982;4.450;2024-02-26T03:07:02;10.85;;;10.84;;
70450;SDS011;58869;51.982;4.450;2024-02-26T03:09:28;11.36;;;11.36;;
70450;SDS011;58869;51.982;4.450;2024-02-26T03:11:53;11.47;;;11.44;;
70450;SDS011;58869;51.982;4.450;2024-02-26T03:14:19;11.21;;;11.16;;
70450;SDS011;58869;51.982;4.450;2024-02-26T03:16:44;11.48;;;11.48;;
70450;SDS011;58869;51.982;4.450;2024-02-26T03:19:14;11.41;;;11.41;;
70450;SDS011;58869;51.982;4.450;2024-02-26T03:21:41;11.76;;;11.76;;
70450;SDS011;58869;51.982;4.450;2024-02-26T03:24:07;11.92;;;11.89;;
70450;SDS011;58869;51.982;4.450;2024-02-26T03:26:35;11.78;;;11.78;;
70450;SDS011;58869;51.982;4.450;2024-02-26T03:29:01;12.22;;;12.22;;
70450;SDS011;58869;51.982;4.450;2024-02-26T03:31:28;11.56;;;11.56;;
70450;SDS011;58869;51.982;4.450;2024-02-26T03:33:53;11.98;;;11.97;;
70450;SDS011;58869;51.982;4.450;2024-02-26T03:36:19;11.50;;;11.50;;
70450;SDS011;58869;51.982;4.450;2024-02-26T03:38:45;11.17;;;11.16;;
70450;SDS011;58869;51.982;4.450;2024-02-26T03:41:10;11.46;;;11.45;;
70450;SDS011;58869;51.982;4.450;2024-02-26T03:43:36;11.45;;;11.45;;
70450;SDS011;58869;51.982;4.450;2024-02-26T03:46:01;11.04;;;11.03;;
70450;SDS011;58869;51.982;4.450;2024-02-26T03:48:27;11.47;;;11.47;;
70450;SDS011;58869;51.982;4.450;2024-02-26T03:50:58;11.08;;;11.08;;
70450;SDS011;58869;51.982;4.450;2024-02-26T03:53:45;11.80;;;11.51;;
70450;SDS011;58869;51.982;4.450;2024-02-26T03:56:13;11.12;;;11.12;;
70450;SDS011;58869;51.982;4.450;2024-02-26T03:58:39;11.69;;;11.64;;
70450;SDS011;58869;51.982;4.450;2024-02-26T04:01:45;11.87;;;11.80;;
70450;SDS011;58869;51.982;4.450;2024-02-26T04:04:15;11.29;;;11.29;;
70450;SDS011;58869;51.982;4.450;2024-02-26T04:06:47;11.85;;;11.85;;
70450;SDS011;58869;51.982;4.450;2024-02-26T04:09:14;11.61;;;11.61;;
70450;SDS011;58869;51.982;4.450;2024-02-26T04:11:40;12.56;;;12.39;;
70450;SDS011;58869;51.982;4.450;2024-02-26T04:14:05;11.95;;;11.93;;
70450;SDS011;58869;51.982;4.450;2024-02-26T04:16:33;12.63;;;12.32;;
70450;SDS011;58869;51.982;4.450;2024-02-26T04:19:00;12.30;;;12.28;;
70450;SDS011;58869;51.982;4.450;2024-02-26T04:21:26;13.10;;;12.69;;
70450;SDS011;58869;51.982;4.450;2024-02-26T04:23:52;13.50;;;13.20;;
70450;SDS011;58869;51.982;4.450;2024-02-26T04:26:20;13.31;;;12.98;;
70450;SDS011;58869;51.982;4.450;2024-02-26T04:28:46;13.79;;;13.22;;
70450;SDS011;58869;51.982;4.450;2024-02-26T04:31:12;14.42;;;13.61;;
70450;SDS011;58869;51.982;4.450;2024-02-26T04:33:37;14.44;;;14.07;;
70450;SDS011;58869;51.982;4.450;2024-02-26T04:36:04;14.86;;;14.30;;
70450;SDS011;58869;51.982;4.450;2024-02-26T04:38:29;15.31;;;14.62;;
70450;SDS011;58869;51.982;4.450;2024-02-26T04:40:55;15.69;;;15.15;;
70450;SDS011;58869;51.982;4.450;2024-02-26T04:43:21;15.49;;;15.14;;
70450;SDS011;58869;51.982;4.450;2024-02-26T04:45:46;16.01;;;15.47;;
70450;SDS011;58869;51.982;4.450;2024-02-26T04:48:11;15.68;;;15.22;;
70450;SDS011;58869;51.982;4.450;2024-02-26T04:50:37;16.42;;;15.73;;
70450;SDS011;58869;51.982;4.450;2024-02-26T04:53:21;15.83;;;15.07;;
70450;SDS011;58869;51.982;4.450;2024-02-26T04:59:05;16.28;;;15.53;;
70450;SDS011;58869;51.982;4.450;2024-02-26T05:01:37;16.47;;;15.74;;
70450;SDS011;58869;51.982;4.450;2024-02-26T05:04:15;15.75;;;15.38;;
70450;SDS011;58869;51.982;4.450;2024-02-26T05:06:40;15.90;;;15.33;;
70450;SDS011;58869;51.982;4.450;2024-02-26T05:09:09;16.33;;;15.59;;
70450;SDS011;58869;51.982;4.450;2024-02-26T05:11:35;15.74;;;15.03;;
70450;SDS011;58869;51.982;4.450;2024-02-26T05:14:00;14.91;;;14.42;;
70450;SDS011;58869;51.982;4.450;2024-02-26T05:16:26;16.06;;;15.49;;
70450;SDS011;58869;51.982;4.450;2024-02-26T05:18:52;16.29;;;15.58;;
70450;SDS011;58869;51.982;4.450;2024-02-26T05:21:23;15.73;;;15.19;;
70450;SDS011;58869;51.982;4.450;2024-02-26T05:24:00;16.67;;;16.06;;
70450;SDS011;58869;51.982;4.450;2024-02-26T05:26:35;16.91;;;16.27;;
70450;SDS011;58869;51.982;4.450;2024-02-26T05:29:05;17.33;;;16.51;;
70450;SDS011;58869;51.982;4.450;2024-02-26T05:31:35;17.48;;;16.72;;
70450;SDS011;58869;51.982;4.450;2024-02-26T05:34:01;16.75;;;16.05;;
70450;SDS011;58869;51.982;4.450;2024-02-26T05:36:36;17.61;;;16.87;;
70450;SDS011;58869;51.982;4.450;2024-02-26T05:46:00;18.37;;;17.58;;
70450;SDS011;58869;51.982;4.450;2024-02-26T05:48:25;17.49;;;16.82;;
70450;SDS011;58869;51.982;4.450;2024-02-26T05:50:51;18.56;;;17.76;;
70450;SDS011;58869;51.982;4.450;2024-02-26T05:53:16;18.41;;;17.44;;
70450;SDS011;58869;51.982;4.450;2024-02-26T05:55:42;17.42;;;16.70;;
70450;SDS011;58869;51.982;4.450;2024-02-26T05:58:07;17.94;;;17.05;;
70450;SDS011;58869;51.982;4.450;2024-02-26T06:00:33;18.10;;;17.32;;
70450;SDS011;58869;51.982;4.450;2024-02-26T06:03:02;17.65;;;16.91;;
70450;SDS011;58869;51.982;4.450;2024-02-26T06:09:04;18.02;;;17.21;;
70450;SDS011;58869;51.982;4.450;2024-02-26T06:11:30;18.61;;;17.73;;
70450;SDS011;58869;51.982;4.450;2024-02-26T06:14:03;17.90;;;17.18;;
70450;SDS011;58869;51.982;4.450;2024-02-26T06:20:39;18.21;;;17.50;;
70450;SDS011;58869;51.982;4.450;2024-02-26T06:23:11;18.80;;;18.09;;
70450;SDS011;58869;51.982;4.450;2024-02-26T06:25:39;19.52;;;18.47;;
70450;SDS011;58869;51.982;4.450;2024-02-26T06:28:04;19.90;;;19.02;;
70450;SDS011;58869;51.982;4.450;2024-02-26T06:30:30;20.29;;;19.34;;
70450;SDS011;58869;51.982;4.450;2024-02-26T06:32:56;20.73;;;19.78;;
70450;SDS011;58869;51.982;4.450;2024-02-26T06:35:30;21.15;;;20.24;;
70450;SDS011;58869;51.982;4.450;2024-02-26T06:38:01;21.99;;;20.89;;
70450;SDS011;58869;51.982;4.450;2024-02-26T06:43:58;23.63;;;22.39;;
70450;SDS011;58869;51.982;4.450;2024-02-26T06:46:24;24.02;;;22.60;;
70450;SDS011;58869;51.982;4.450;2024-02-26T06:58:39;25.53;;;24.07;;
70450;SDS011;58869;51.982;4.450;2024-02-26T07:01:11;25.84;;;24.46;;
70450;SDS011;58869;51.982;4.450;2024-02-26T07:06:27;25.82;;;24.71;;
70450;SDS011;58869;51.982;4.450;2024-02-26T07:09:13;26.64;;;25.35;;
70450;SDS011;58869;51.982;4.450;2024-02-26T07:11:42;26.80;;;25.61;;
70450;SDS011;58869;51.982;4.450;2024-02-26T07:17:26;27.93;;;26.70;;
70450;SDS011;58869;51.982;4.450;2024-02-26T07:23:05;27.52;;;26.24;;
70450;SDS011;58869;51.982;4.450;2024-02-26T07:26:16;27.22;;;26.09;;
70450;SDS011;58869;51.982;4.450;2024-02-26T07:28:43;28.46;;;27.20;;
70450;SDS011;58869;51.982;4.450;2024-02-26T07:31:32;29.06;;;27.83;;
70450;SDS011;58869;51.982;4.450;2024-02-26T07:34:15;28.95;;;27.66;;
70450;SDS011;58869;51.982;4.450;2024-02-26T07:37:08;28.66;;;27.53;;
70450;SDS011;58869;51.982;4.450;2024-02-26T07:39:33;28.48;;;27.29;;
70450;SDS011;58869;51.982;4.450;2024-02-26T07:42:02;28.58;;;27.46;;
70450;SDS011;58869;51.982;4.450;2024-02-26T07:47:48;27.33;;;26.38;;
70450;SDS011;58869;51.982;4.450;2024-02-26T07:50:17;27.56;;;26.41;;
70450;SDS011;58869;51.982;4.450;2024-02-26T07:52:53;26.30;;;25.15;;
70450;SDS011;58869;51.982;4.450;2024-02-26T07:55:19;26.11;;;25.02;;
70450;SDS011;58869;51.982;4.450;2024-02-26T07:57:58;24.96;;;23.83;;
70450;SDS011;58869;51.982;4.450;2024-02-26T08:00:32;24.68;;;23.65;;
70450;SDS011;58869;51.982;4.450;2024-02-26T08:03:14;24.06;;;23.25;;
70450;SDS011;58869;51.982;4.450;2024-02-26T08:06:08;24.00;;;23.01;;
70450;SDS011;58869;51.982;4.450;2024-02-26T08:09:02;23.11;;;22.34;;
70450;SDS011;58869;51.982;4.450;2024-02-26T08:11:38;22.01;;;21.44;;
70450;SDS011;58869;51.982;4.450;2024-02-26T08:14:25;22.07;;;21.52;;
70450;SDS011;58869;51.982;4.450;2024-02-26T08:20:40;20.38;;;19.69;;
70450;SDS011;58869;51.982;4.450;2024-02-26T08:23:06;18.96;;;18.81;;
70450;SDS011;58869;51.982;4.450;2024-02-26T08:25:32;18.25;;;18.12;;
70450;SDS011;58869;51.982;4.450;2024-02-26T08:27:57;17.75;;;17.60;;
70450;SDS011;58869;51.982;4.450;2024-02-26T08:30:26;16.76;;;16.69;;
70450;SDS011;58869;51.982;4.450;2024-02-26T08:38:45;15.23;;;15.23;;
70450;SDS011;58869;51.982;4.450;2024-02-26T08:41:10;14.36;;;14.18;;
70450;SDS011;58869;51.982;4.450;2024-02-26T08:46:41;14.44;;;13.97;;
70450;SDS011;58869;51.982;4.450;2024-02-26T08:49:09;13.70;;;13.42;;
70450;SDS011;58869;51.982;4.450;2024-02-26T08:54:53;12.23;;;12.03;;
70450;SDS011;58869;51.982;4.450;2024-02-26T08:57:19;12.90;;;12.47;;
70450;SDS011;58869;51.982;4.450;2024-02-26T08:59:44;12.42;;;12.23;;
70450;SDS011;58869;51.982;4.450;2024-02-26T09:02:10;11.76;;;11.62;;
70450;SDS011;58869;51.982;4.450;2024-02-26T09:04:41;11.46;;;11.27;;
70450;SDS011;58869;51.982;4.450;2024-02-26T09:07:06;11.29;;;11.17;;
70450;SDS011;58869;51.982;4.450;2024-02-26T09:09:32;11.62;;;11.24;;
70450;SDS011;58869;51.982;4.450;2024-02-26T09:11:57;12.31;;;11.75;;
70450;SDS011;58869;51.982;4.450;2024-02-26T09:14:23;11.61;;;11.16;;
70450;SDS011;58869;51.982;4.450;2024-02-26T09:16:49;11.36;;;10.98;;
70450;SDS011;58869;51.982;4.450;2024-02-26T09:19:14;11.31;;;10.91;;
70450;SDS011;58869;51.982;4.450;2024-02-26T09:21:43;10.80;;;10.66;;
70450;SDS011;58869;51.982;4.450;2024-02-26T09:24:12;10.99;;;10.53;;
70450;SDS011;58869;51.982;4.450;2024-02-26T09:26:37;10.69;;;10.40;;
70450;SDS011;58869;51.982;4.450;2024-02-26T09:29:03;10.76;;;10.38;;
70450;SDS011;58869;51.982;4.450;2024-02-26T09:31:33;10.49;;;10.18;;
70450;SDS011;58869;51.982;4.450;2024-02-26T09:33:59;9.98;;;9.75;;
70450;SDS011;58869;51.982;4.450;2024-02-26T09:36:25;10.29;;;10.08;;
70450;SDS011;58869;51.982;4.450;2024-02-26T09:38:56;9.90;;;9.84;;
70450;SDS011;58869;51.982;4.450;2024-02-26T09:41:21;10.02;;;9.84;;
70450;SDS011;58869;51.982;4.450;2024-02-26T09:43:47;9.31;;;9.31;;
70450;SDS011;58869;51.982;4.450;2024-02-26T09:46:14;9.28;;;9.25;;
70450;SDS011;58869;51.982;4.450;2024-02-26T09:48:43;8.98;;;8.93;;
70450;SDS011;58869;51.982;4.450;2024-02-26T09:51:10;9.07;;;8.99;;
70450;SDS011;58869;51.982;4.450;2024-02-26T09:53:36;9.06;;;9.01;;
70450;SDS011;58869;51.982;4.450;2024-02-26T09:56:07;9.33;;;9.00;;
70450;SDS011;58869;51.982;4.450;2024-02-26T09:58:33;9.43;;;9.26;;
70450;SDS011;58869;51.982;4.450;2024-02-26T10:01:00;9.12;;;8.95;;
70450;SDS011;58869;51.982;4.450;2024-02-26T10:03:31;9.29;;;9.02;;
70450;SDS011;58869;51.982;4.450;2024-02-26T10:06:03;9.08;;;9.00;;
70450;SDS011;58869;51.982;4.450;2024-02-26T10:08:56;8.62;;;8.62;;
70450;SDS011;58869;51.982;4.450;2024-02-26T10:11:35;9.31;;;9.15;;
70450;SDS011;58869;51.982;4.450;2024-02-26T10:14:00;9.54;;;9.41;;
70450;SDS011;58869;51.982;4.450;2024-02-26T10:16:26;9.70;;;9.63;;
70450;SDS011;58869;51.982;4.450;2024-02-26T10:18:52;9.80;;;9.48;;
70450;SDS011;58869;51.982;4.450;2024-02-26T10:21:21;9.53;;;9.38;;
70450;SDS011;58869;51.982;4.450;2024-02-26T10:27:20;9.30;;;9.17;;
70450;SDS011;58869;51.982;4.450;2024-02-26T10:29:46;9.35;;;9.33;;
70450;SDS011;58869;51.982;4.450;2024-02-26T10:32:13;9.57;;;9.57;;
70450;SDS011;58869;51.982;4.450;2024-02-26T10:34:45;9.53;;;9.37;;
70450;SDS011;58869;51.982;4.450;2024-02-26T10:37:11;9.71;;;9.43;;
70450;SDS011;58869;51.982;4.450;2024-02-26T10:39:37;10.07;;;9.81;;
70450;SDS011;58869;51.982;4.450;2024-02-26T10:42:03;10.05;;;9.77;;
70450;SDS011;58869;51.982;4.450;2024-02-26T10:44:34;10.21;;;9.86;;
70450;SDS011;58869;51.982;4.450;2024-02-26T10:47:00;9.36;;;9.32;;
70450;SDS011;58869;51.982;4.450;2024-02-26T10:49:25;9.61;;;9.61;;
70450;SDS011;58869;51.982;4.450;2024-02-26T10:52:00;10.01;;;9.99;;
70450;SDS011;58869;51.982;4.450;2024-02-26T10:54:27;9.15;;;9.12;;
70450;SDS011;58869;51.982;4.450;2024-02-26T10:56:55;9.58;;;9.36;;
70450;SDS011;58869;51.982;4.450;2024-02-26T10:59:24;10.31;;;9.90;;
70450;SDS011;58869;51.982;4.450;2024-02-26T11:01:50;9.11;;;8.90;;
70450;SDS011;58869;51.982;4.450;2024-02-26T11:04:16;8.78;;;8.70;;
70450;SDS011;58869;51.982;4.450;2024-02-26T11:06:43;8.65;;;8.53;;
70450;SDS011;58869;51.982;4.450;2024-02-26T11:09:10;8.36;;;8.13;;
70450;SDS011;58869;51.982;4.450;2024-02-26T11:11:40;8.22;;;8.12;;
70450;SDS011;58869;51.982;4.450;2024-02-26T11:14:08;8.39;;;8.37;;
70450;SDS011;58869;51.982;4.450;2024-02-26T11:16:35;8.80;;;8.64;;
70450;SDS011;58869;51.982;4.450;2024-02-26T11:19:01;8.56;;;8.31;;
70450;SDS011;58869;51.982;4.450;2024-02-26T11:21:28;8.27;;;8.20;;
70450;SDS011;58869;51.982;4.450;2024-02-26T11:24:04;7.73;;;7.54;;
70450;SDS011;58869;51.982;4.450;2024-02-26T11:26:32;8.03;;;7.76;;
70450;SDS011;58869;51.982;4.450;2024-02-26T11:29:01;8.37;;;8.31;;
70450;SDS011;58869;51.982;4.450;2024-02-26T11:31:28;9.02;;;8.76;;
70450;SDS011;58869;51.982;4.450;2024-02-26T11:33:54;8.59;;;8.58;;
70450;SDS011;58869;51.982;4.450;2024-02-26T11:36:21;8.67;;;8.52;;
70450;SDS011;58869;51.982;4.450;2024-02-26T11:38:49;9.05;;;8.93;;
70450;SDS011;58869;51.982;4.450;2024-02-26T11:41:17;8.82;;;8.81;;
70450;SDS011;58869;51.982;4.450;2024-02-26T11:43:57;8.97;;;8.87;;
70450;SDS011;58869;51.982;4.450;2024-02-26T11:46:38;8.82;;;8.74;;
70450;SDS011;58869;51.982;4.450;2024-02-26T11:51:51;8.60;;;8.52;;
70450;SDS011;58869;51.982;4.450;2024-02-26T11:54:39;8.29;;;8.25;;
70450;SDS011;58869;51.982;4.450;2024-02-26T12:00:15;8.13;;;8.11;;
70450;SDS011;58869;51.982;4.450;2024-02-26T12:02:51;7.80;;;7.75;;
70450;SDS011;58869;51.982;4.450;2024-02-26T12:05:26;7.46;;;7.44;;
70450;SDS011;58869;51.982;4.450;2024-02-26T12:08:03;6.90;;;6.90;;
70450;SDS011;58869;51.982;4.450;2024-02-26T12:10:40;7.53;;;7.46;;
70450;SDS011;58869;51.982;4.450;2024-02-26T12:13:09;7.66;;;7.48;;
70450;SDS011;58869;51.982;4.450;2024-02-26T12:15:41;7.36;;;7.22;;
70450;SDS011;58869;51.982;4.450;2024-02-26T12:18:15;6.99;;;6.99;;
70450;SDS011;58869;51.982;4.450;2024-02-26T12:20:42;6.66;;;6.66;;
70450;SDS011;58869;51.982;4.450;2024-02-26T12:23:15;6.63;;;6.62;;
70450;SDS011;58869;51.982;4.450;2024-02-26T12:25:44;5.95;;;5.95;;
70450;SDS011;58869;51.982;4.450;2024-02-26T12:28:19;5.75;;;5.75;;
70450;SDS011;58869;51.982;4.450;2024-02-26T12:30:44;6.02;;;6.02;;
70450;SDS011;58869;51.982;4.450;2024-02-26T12:33:11;5.61;;;5.61;;
70450;SDS011;58869;51.982;4.450;2024-02-26T12:35:36;5.74;;;5.71;;
70450;SDS011;58869;51.982;4.450;2024-02-26T12:38:02;6.22;;;6.14;;
70450;SDS011;58869;51.982;4.450;2024-02-26T12:40:32;5.62;;;5.62;;
70450;SDS011;58869;51.982;4.450;2024-02-26T12:42:59;5.60;;;5.60;;
70450;SDS011;58869;51.982;4.450;2024-02-26T12:45:25;5.46;;;5.45;;
70450;SDS011;58869;51.982;4.450;2024-02-26T12:47:51;5.50;;;5.50;;
70450;SDS011;58869;51.982;4.450;2024-02-26T12:50:17;5.22;;;5.22;;
70450;SDS011;58869;51.982;4.450;2024-02-26T12:52:44;5.54;;;5.54;;
70450;SDS011;58869;51.982;4.450;2024-02-26T12:55:13;5.75;;;5.75;;
70450;SDS011;58869;51.982;4.450;2024-02-26T12:57:41;5.35;;;5.35;;
70450;SDS011;58869;51.982;4.450;2024-02-26T13:00:11;5.63;;;5.63;;
70450;SDS011;58869;51.982;4.450;2024-02-26T13:02:39;5.88;;;5.88;;
70450;SDS011;58869;51.982;4.450;2024-02-26T13:05:08;6.10;;;5.96;;
70450;SDS011;58869;51.982;4.450;2024-02-26T13:07:44;5.59;;;5.57;;
70450;SDS011;58869;51.982;4.450;2024-02-26T13:10:12;5.36;;;5.36;;
70450;SDS011;58869;51.982;4.450;2024-02-26T13:12:42;5.35;;;5.35;;
70450;SDS011;58869;51.982;4.450;2024-02-26T13:15:09;5.17;;;5.17;;
70450;SDS011;58869;51.982;4.450;2024-02-26T13:17:45;5.30;;;5.28;;
70450;SDS011;58869;51.982;4.450;2024-02-26T13:20:24;5.39;;;5.31;;
70450;SDS011;58869;51.982;4.450;2024-02-26T13:22:59;5.18;;;5.16;;
70450;SDS011;58869;51.982;4.450;2024-02-26T13:25:26;5.36;;;5.35;;
70450;SDS011;58869;51.982;4.450;2024-02-26T13:27:51;5.25;;;5.25;;
70450;SDS011;58869;51.982;4.450;2024-02-26T13:30:17;5.31;;;5.30;;
70450;SDS011;58869;51.982;4.450;2024-02-26T13:32:44;5.63;;;5.55;;
70450;SDS011;58869;51.982;4.450;2024-02-26T13:35:12;5.41;;;5.38;;
70450;SDS011;58869;51.982;4.450;2024-02-26T13:37:38;5.07;;;5.06;;
70450;SDS011;58869;51.982;4.450;2024-02-26T13:40:06;5.39;;;5.39;;
70450;SDS011;58869;51.982;4.450;2024-02-26T13:42:35;5.63;;;5.63;;
70450;SDS011;58869;51.982;4.450;2024-02-26T13:45:01;5.37;;;5.37;;
70450;SDS011;58869;51.982;4.450;2024-02-26T13:47:27;5.34;;;5.32;;
70450;SDS011;58869;51.982;4.450;2024-02-26T13:49:56;5.68;;;5.53;;
70450;SDS011;58869;51.982;4.450;2024-02-26T13:52:22;5.19;;;5.08;;
70450;SDS011;58869;51.982;4.450;2024-02-26T13:54:47;5.25;;;5.16;;
70450;SDS011;58869;51.982;4.450;2024-02-26T13:57:16;5.17;;;5.17;;
70450;SDS011;58869;51.982;4.450;2024-02-26T13:59:42;4.93;;;4.93;;
70450;SDS011;58869;51.982;4.450;2024-02-26T14:02:11;5.16;;;5.12;;
70450;SDS011;58869;51.982;4.450;2024-02-26T14:04:37;5.06;;;5.05;;
70450;SDS011;58869;51.982;4.450;2024-02-26T14:07:02;4.89;;;4.85;;
70450;SDS011;58869;51.982;4.450;2024-02-26T14:09:28;4.86;;;4.86;;
70450;SDS011;58869;51.982;4.450;2024-02-26T14:11:54;4.77;;;4.77;;
70450;SDS011;58869;51.982;4.450;2024-02-26T14:14:21;4.63;;;4.63;;
70450;SDS011;58869;51.982;4.450;2024-02-26T14:16:46;4.87;;;4.87;;
70450;SDS011;58869;51.982;4.450;2024-02-26T14:19:12;4.84;;;4.84;;
70450;SDS011;58869;51.982;4.450;2024-02-26T14:21:43;4.69;;;4.69;;
70450;SDS011;58869;51.982;4.450;2024-02-26T14:24:09;4.86;;;4.85;;
70450;SDS011;58869;51.982;4.450;2024-02-26T14:26:34;4.35;;;4.30;;
70450;SDS011;58869;51.982;4.450;2024-02-26T14:29:00;4.58;;;4.55;;
70450;SDS011;58869;51.982;4.450;2024-02-26T14:31:25;4.33;;;4.29;;
70450;SDS011;58869;51.982;4.450;2024-02-26T14:33:51;4.44;;;4.40;;
70450;SDS011;58869;51.982;4.450;2024-02-26T14:36:19;4.52;;;4.52;;
70450;SDS011;58869;51.982;4.450;2024-02-26T14:38:46;4.29;;;4.29;;
70450;SDS011;58869;51.982;4.450;2024-02-26T14:41:13;4.40;;;4.40;;
70450;SDS011;58869;51.982;4.450;2024-02-26T14:43:38;4.48;;;4.48;;
70450;SDS011;58869;51.982;4.450;2024-02-26T14:46:04;4.65;;;4.65;;
70450;SDS011;58869;51.982;4.450;2024-02-26T14:48:30;4.83;;;4.83;;
70450;SDS011;58869;51.982;4.450;2024-02-26T14:50:56;5.22;;;5.16;;
70450;SDS011;58869;51.982;4.450;2024-02-26T14:53:22;5.29;;;5.27;;
70450;SDS011;58869;51.982;4.450;2024-02-26T14:55:51;5.19;;;5.19;;
70450;SDS011;58869;51.982;4.450;2024-02-26T14:58:16;5.59;;;5.59;;
70450;SDS011;58869;51.982;4.450;2024-02-26T15:00:42;5.36;;;5.34;;
70450;SDS011;58869;51.982;4.450;2024-02-26T15:03:07;5.67;;;5.66;;
70450;SDS011;58869;51.982;4.450;2024-02-26T15:05:33;5.63;;;5.63;;
70450;SDS011;58869;51.982;4.450;2024-02-26T15:07:59;6.02;;;6.02;;
70450;SDS011;58869;51.982;4.450;2024-02-26T15:10:25;5.92;;;5.92;;
70450;SDS011;58869;51.982;4.450;2024-02-26T15:12:50;5.53;;;5.49;;
70450;SDS011;58869;51.982;4.450;2024-02-26T15:15:20;5.71;;;5.66;;
70450;SDS011;58869;51.982;4.450;2024-02-26T15:17:48;5.78;;;5.77;;
70450;SDS011;58869;51.982;4.450;2024-02-26T15:20:16;5.91;;;5.90;;
70450;SDS011;58869;51.982;4.450;2024-02-26T15:22:42;5.90;;;5.89;;
70450;SDS011;58869;51.982;4.450;2024-02-26T15:25:08;5.91;;;5.79;;
70450;SDS011;58869;51.982;4.450;2024-02-26T15:27:34;6.07;;;5.96;;
70450;SDS011;58869;51.982;4.450;2024-02-26T15:30:00;5.81;;;5.79;;
70450;SDS011;58869;51.982;4.450;2024-02-26T15:32:26;6.07;;;6.06;;
70450;SDS011;58869;51.982;4.450;2024-02-26T15:34:52;6.07;;;6.05;;
70450;SDS011;58869;51.982;4.450;2024-02-26T15:37:21;5.90;;;5.87;;
70450;SDS011;58869;51.982;4.450;2024-02-26T15:39:47;6.00;;;6.00;;
70450;SDS011;58869;51.982;4.450;2024-02-26T15:42:13;5.60;;;5.60;;
70450;SDS011;58869;51.982;4.450;2024-02-26T15:44:38;5.97;;;5.97;;
70450;SDS011;58869;51.982;4.450;2024-02-26T15:47:04;5.94;;;5.94;;
70450;SDS011;58869;51.982;4.450;2024-02-26T15:49:31;6.32;;;6.32;;
70450;SDS011;58869;51.982;4.450;2024-02-26T15:51:57;6.18;;;6.18;;